sensor_id;sensor_type;location;lat;lon;timestamp;P1;durP1;ratioP1;P2;durP2;ratioP2
21258;SDS011;10787;53.364;-1.480;2023-02-18T00:00:24;2.80;;;2.53;;
21258;SDS011;10787;53.364;-1.480;2023-02-18T00:02:51;2.90;;;2.60;;
21258;SDS011;10787;53.364;-1.480;2023-02-18T00:05:17;2.50;;;2.30;;
21258;SDS011;10787;53.364;-1.480;2023-02-18T00:07:43;2.50;;;2.30;;
21258;SDS011;10787;53.364;-1.480;2023-02-18T00:10:13;2.40;;;2.20;;
21258;SDS011;10787;53.364;-1.480;2023-02-18T00:12:40;2.30;;;2.00;;
21258;SDS011;10787;53.364;-1.480;2023-02-18T00:15:06;2.33;;;1.90;;
21258;SDS011;10787;53.364;-1.480;2023-02-18T00:17:33;2.00;;;1.80;;
21258;SDS011;10787;53.364;-1.480;2023-02-18T00:19:59;1.70;;;1.60;;
21258;SDS011;10787;53.364;-1.480;2023-02-18T00:22:25;1.60;;;1.50;;
21258;SDS011;10787;53.364;-1.480;2023-02-18T00:24:50;1.60;;;1.50;;
21258;SDS011;10787;53.364;-1.480;2023-02-18T00:27:16;1.60;;;1.50;;
21258;SDS011;10787;53.364;-1.480;2023-02-18T00:29:42;1.63;;;1.53;;
21258;SDS011;10787;53.364;-1.480;2023-02-18T00:32:08;1.97;;;1.80;;
21258;SDS011;10787;53.364;-1.480;2023-02-18T00:34:34;1.77;;;1.50;;
21258;SDS011;10787;53.364;-1.480;2023-02-18T00:36:59;1.70;;;1.53;;
21258;SDS011;10787;53.364;-1.480;2023-02-18T00:39:25;1.73;;;1.50;;
21258;SDS011;10787;53.364;-1.480;2023-02-18T00:41:51;1.57;;;1.47;;
21258;SDS011;10787;53.364;-1.480;2023-02-18T00:44:16;1.87;;;1.33;;
21258;SDS011;10787;53.364;-1.480;2023-02-18T00:46:42;2.03;;;1.40;;
21258;SDS011;10787;53.364;-1.480;2023-02-18T00:49:08;2.07;;;1.53;;
21258;SDS011;10787;53.364;-1.480;2023-02-18T00:51:34;2.30;;;1.20;;
21258;SDS011;10787;53.364;-1.480;2023-02-18T00:54:01;1.93;;;1.30;;
21258;SDS011;10787;53.364;-1.480;2023-02-18T00:56:27;1.23;;;1.10;;
21258;SDS011;10787;53.364;-1.480;2023-02-18T00:58:52;1.37;;;1.10;;
21258;SDS011;10787;53.364;-1.480;2023-02-18T01:01:18;1.30;;;0.90;;
21258;SDS011;10787;53.364;-1.480;2023-02-18T01:03:44;1.90;;;1.30;;
21258;SDS011;10787;53.364;-1.480;2023-02-18T01:06:10;1.33;;;0.90;;
21258;SDS011;10787;53.364;-1.480;2023-02-18T01:08:37;2.13;;;0.90;;
21258;SDS011;10787;53.364;-1.480;2023-02-18T01:11:04;2.63;;;1.10;;
21258;SDS011;10787;53.364;-1.480;2023-02-18T01:13:31;2.97;;;0.90;;
21258;SDS011;10787;53.364;-1.480;2023-02-18T01:15:57;2.13;;;0.80;;
21258;SDS011;10787;53.364;-1.480;2023-02-18T01:18:24;2.80;;;1.00;;
21258;SDS011;10787;53.364;-1.480;2023-02-18T01:20:50;1.63;;;0.80;;
21258;SDS011;10787;53.364;-1.480;2023-02-18T01:23:16;2.77;;;1.00;;
21258;SDS011;10787;53.364;-1.480;2023-02-18T01:25:43;3.43;;;1.13;;
21258;SDS011;10787;53.364;-1.480;2023-02-18T01:28:09;2.60;;;1.00;;
21258;SDS011;10787;53.364;-1.480;2023-02-18T01:30:36;2.43;;;1.20;;
21258;SDS011;10787;53.364;-1.480;2023-02-18T01:33:01;2.97;;;1.17;;
21258;SDS011;10787;53.364;-1.480;2023-02-18T01:35:27;2.63;;;1.00;;
21258;SDS011;10787;53.364;-1.480;2023-02-18T01:37:53;2.03;;;1.10;;
21258;SDS011;10787;53.364;-1.480;2023-02-18T01:40:20;2.43;;;1.20;;
21258;SDS011;10787;53.364;-1.480;2023-02-18T01:42:48;1.93;;;1.10;;
21258;SDS011;10787;53.364;-1.480;2023-02-18T01:48:01;3.07;;;1.00;;
21258;SDS011;10787;53.364;-1.480;2023-02-18T01:50:36;3.70;;;1.07;;
21258;SDS011;10787;53.364;-1.480;2023-02-18T01:53:04;2.47;;;1.07;;
21258;SDS011;10787;53.364;-1.480;2023-02-18T01:55:31;2.53;;;0.90;;
21258;SDS011;10787;53.364;-1.480;2023-02-18T01:57:58;4.40;;;1.20;;
21258;SDS011;10787;53.364;-1.480;2023-02-18T02:00:24;5.27;;;1.10;;
21258;SDS011;10787;53.364;-1.480;2023-02-18T02:02:51;4.20;;;1.30;;
21258;SDS011;10787;53.364;-1.480;2023-02-18T02:05:18;4.43;;;1.27;;
21258;SDS011;10787;53.364;-1.480;2023-02-18T02:07:45;4.73;;;1.20;;
21258;SDS011;10787;53.364;-1.480;2023-02-18T02:10:15;6.17;;;1.33;;
21258;SDS011;10787;53.364;-1.480;2023-02-18T02:12:57;4.27;;;1.20;;
21258;SDS011;10787;53.364;-1.480;2023-02-18T02:15:33;4.20;;;1.20;;
21258;SDS011;10787;53.364;-1.480;2023-02-18T02:35:43;3.20;;;1.10;;
21258;SDS011;10787;53.364;-1.480;2023-02-18T02:38:39;5.47;;;1.30;;
21258;SDS011;10787;53.364;-1.480;2023-02-18T02:46:51;3.73;;;1.33;;
21258;SDS011;10787;53.364;-1.480;2023-02-18T02:49:36;3.60;;;1.20;;
21258;SDS011;10787;53.364;-1.480;2023-02-18T02:52:33;6.27;;;1.60;;
21258;SDS011;10787;53.364;-1.480;2023-02-18T02:55:12;3.87;;;1.47;;
21258;SDS011;10787;53.364;-1.480;2023-02-18T03:00:27;8.07;;;1.70;;
21258;SDS011;10787;53.364;-1.480;2023-02-18T03:08:57;9.40;;;2.00;;
21258;SDS011;10787;53.364;-1.480;2023-02-18T03:16:23;8.93;;;1.90;;
21258;SDS011;10787;53.364;-1.480;2023-02-18T03:18:58;5.90;;;1.83;;
21258;SDS011;10787;53.364;-1.480;2023-02-18T03:21:27;8.40;;;1.70;;
21258;SDS011;10787;53.364;-1.480;2023-02-18T03:23:57;11.20;;;2.13;;
21258;SDS011;10787;53.364;-1.480;2023-02-18T03:26:45;10.83;;;2.30;;
21258;SDS011;10787;53.364;-1.480;2023-02-18T03:29:14;8.50;;;1.90;;
21258;SDS011;10787;53.364;-1.480;2023-02-18T03:31:41;9.07;;;2.00;;
21258;SDS011;10787;53.364;-1.480;2023-02-18T03:34:10;6.63;;;1.93;;
21258;SDS011;10787;53.364;-1.480;2023-02-18T03:36:42;9.70;;;2.17;;
21258;SDS011;10787;53.364;-1.480;2023-02-18T03:39:16;9.23;;;1.97;;
21258;SDS011;10787;53.364;-1.480;2023-02-18T03:41:43;7.63;;;2.17;;
21258;SDS011;10787;53.364;-1.480;2023-02-18T03:44:10;8.73;;;1.93;;
21258;SDS011;10787;53.364;-1.480;2023-02-18T03:46:38;9.20;;;2.13;;
21258;SDS011;10787;53.364;-1.480;2023-02-18T03:49:08;7.90;;;1.80;;
21258;SDS011;10787;53.364;-1.480;2023-02-18T03:51:35;4.73;;;1.17;;
21258;SDS011;10787;53.364;-1.480;2023-02-18T03:54:01;4.57;;;1.00;;
21258;SDS011;10787;53.364;-1.480;2023-02-18T03:56:26;5.80;;;1.07;;
21258;SDS011;10787;53.364;-1.480;2023-02-18T03:58:52;2.93;;;1.00;;
21258;SDS011;10787;53.364;-1.480;2023-02-18T04:01:18;3.80;;;1.10;;
21258;SDS011;10787;53.364;-1.480;2023-02-18T04:03:44;3.27;;;0.93;;
21258;SDS011;10787;53.364;-1.480;2023-02-18T04:06:10;4.77;;;1.10;;
21258;SDS011;10787;53.364;-1.480;2023-02-18T04:08:36;3.60;;;1.10;;
21258;SDS011;10787;53.364;-1.480;2023-02-18T04:11:02;2.77;;;0.90;;
21258;SDS011;10787;53.364;-1.480;2023-02-18T04:13:29;4.20;;;1.00;;
21258;SDS011;10787;53.364;-1.480;2023-02-18T04:15:55;4.37;;;0.90;;
21258;SDS011;10787;53.364;-1.480;2023-02-18T04:18:20;4.30;;;1.10;;
21258;SDS011;10787;53.364;-1.480;2023-02-18T04:20:46;2.30;;;0.70;;
21258;SDS011;10787;53.364;-1.480;2023-02-18T04:23:12;3.47;;;0.77;;
21258;SDS011;10787;53.364;-1.480;2023-02-18T04:25:39;2.37;;;0.60;;
21258;SDS011;10787;53.364;-1.480;2023-02-18T04:28:05;3.27;;;0.70;;
21258;SDS011;10787;53.364;-1.480;2023-02-18T04:30:31;2.57;;;0.70;;
21258;SDS011;10787;53.364;-1.480;2023-02-18T04:32:57;1.50;;;0.60;;
21258;SDS011;10787;53.364;-1.480;2023-02-18T04:35:23;2.30;;;0.70;;
21258;SDS011;10787;53.364;-1.480;2023-02-18T04:37:49;2.73;;;0.70;;
21258;SDS011;10787;53.364;-1.480;2023-02-18T04:40:15;1.50;;;0.63;;
21258;SDS011;10787;53.364;-1.480;2023-02-18T04:42:40;1.73;;;0.70;;
21258;SDS011;10787;53.364;-1.480;2023-02-18T04:45:06;4.50;;;0.93;;
21258;SDS011;10787;53.364;-1.480;2023-02-18T04:47:32;1.70;;;0.53;;
21258;SDS011;10787;53.364;-1.480;2023-02-18T04:49:58;1.43;;;0.50;;
21258;SDS011;10787;53.364;-1.480;2023-02-18T04:52:24;3.43;;;0.60;;
21258;SDS011;10787;53.364;-1.480;2023-02-18T04:54:50;2.10;;;0.60;;
21258;SDS011;10787;53.364;-1.480;2023-02-18T04:57:16;1.90;;;0.57;;
21258;SDS011;10787;53.364;-1.480;2023-02-18T04:59:42;3.10;;;0.80;;
21258;SDS011;10787;53.364;-1.480;2023-02-18T05:02:07;2.13;;;0.70;;
21258;SDS011;10787;53.364;-1.480;2023-02-18T05:04:33;1.40;;;0.60;;
21258;SDS011;10787;53.364;-1.480;2023-02-18T05:06:59;1.67;;;1.00;;
21258;SDS011;10787;53.364;-1.480;2023-02-18T05:09:25;2.80;;;1.30;;
21258;SDS011;10787;53.364;-1.480;2023-02-18T05:11:50;2.93;;;1.60;;
21258;SDS011;10787;53.364;-1.480;2023-02-18T05:14:17;5.20;;;2.70;;
21258;SDS011;10787;53.364;-1.480;2023-02-18T05:16:43;6.07;;;3.00;;
21258;SDS011;10787;53.364;-1.480;2023-02-18T05:19:09;6.57;;;3.93;;
21258;SDS011;10787;53.364;-1.480;2023-02-18T05:21:38;6.17;;;3.57;;
21258;SDS011;10787;53.364;-1.480;2023-02-18T05:24:04;4.80;;;3.17;;
21258;SDS011;10787;53.364;-1.480;2023-02-18T05:26:29;5.30;;;3.23;;
21258;SDS011;10787;53.364;-1.480;2023-02-18T05:28:55;3.63;;;2.20;;
21258;SDS011;10787;53.364;-1.480;2023-02-18T05:31:21;4.57;;;2.67;;
21258;SDS011;10787;53.364;-1.480;2023-02-18T05:33:47;3.73;;;2.13;;
21258;SDS011;10787;53.364;-1.480;2023-02-18T05:36:13;4.80;;;3.10;;
21258;SDS011;10787;53.364;-1.480;2023-02-18T05:38:38;6.63;;;3.87;;
21258;SDS011;10787;53.364;-1.480;2023-02-18T05:41:04;8.07;;;4.20;;
21258;SDS011;10787;53.364;-1.480;2023-02-18T05:43:30;4.70;;;3.07;;
21258;SDS011;10787;53.364;-1.480;2023-02-18T05:46:15;3.97;;;2.80;;
21258;SDS011;10787;53.364;-1.480;2023-02-18T05:48:41;3.00;;;1.47;;
21258;SDS011;10787;53.364;-1.480;2023-02-18T05:51:07;3.63;;;2.10;;
21258;SDS011;10787;53.364;-1.480;2023-02-18T05:53:32;3.97;;;2.33;;
21258;SDS011;10787;53.364;-1.480;2023-02-18T05:55:58;4.60;;;3.10;;
21258;SDS011;10787;53.364;-1.480;2023-02-18T05:58:24;6.37;;;3.30;;
21258;SDS011;10787;53.364;-1.480;2023-02-18T06:00:50;5.17;;;3.13;;
21258;SDS011;10787;53.364;-1.480;2023-02-18T06:03:15;4.33;;;2.83;;
21258;SDS011;10787;53.364;-1.480;2023-02-18T06:05:41;4.63;;;3.23;;
21258;SDS011;10787;53.364;-1.480;2023-02-18T06:08:07;6.30;;;3.27;;
21258;SDS011;10787;53.364;-1.480;2023-02-18T06:10:32;6.63;;;3.87;;
21258;SDS011;10787;53.364;-1.480;2023-02-18T06:12:58;4.97;;;3.50;;
21258;SDS011;10787;53.364;-1.480;2023-02-18T06:15:26;3.93;;;3.00;;
21258;SDS011;10787;53.364;-1.480;2023-02-18T06:17:52;3.80;;;1.97;;
21258;SDS011;10787;53.364;-1.480;2023-02-18T06:20:18;3.13;;;1.40;;
21258;SDS011;10787;53.364;-1.480;2023-02-18T06:22:44;3.00;;;1.20;;
21258;SDS011;10787;53.364;-1.480;2023-02-18T06:25:10;3.27;;;1.20;;
21258;SDS011;10787;53.364;-1.480;2023-02-18T06:27:35;2.30;;;1.10;;
21258;SDS011;10787;53.364;-1.480;2023-02-18T06:30:01;2.33;;;1.00;;
21258;SDS011;10787;53.364;-1.480;2023-02-18T06:32:27;2.77;;;1.30;;
21258;SDS011;10787;53.364;-1.480;2023-02-18T06:34:53;1.30;;;1.10;;
21258;SDS011;10787;53.364;-1.480;2023-02-18T06:37:18;1.40;;;1.17;;
21258;SDS011;10787;53.364;-1.480;2023-02-18T06:39:44;1.63;;;1.10;;
21258;SDS011;10787;53.364;-1.480;2023-02-18T06:42:10;2.90;;;1.20;;
21258;SDS011;10787;53.364;-1.480;2023-02-18T06:44:36;3.27;;;1.17;;
21258;SDS011;10787;53.364;-1.480;2023-02-18T06:47:01;1.93;;;1.13;;
21258;SDS011;10787;53.364;-1.480;2023-02-18T06:49:27;1.77;;;1.20;;
21258;SDS011;10787;53.364;-1.480;2023-02-18T06:51:54;1.33;;;0.97;;
21258;SDS011;10787;53.364;-1.480;2023-02-18T06:54:20;2.90;;;1.37;;
21258;SDS011;10787;53.364;-1.480;2023-02-18T06:56:46;2.03;;;1.13;;
21258;SDS011;10787;53.364;-1.480;2023-02-18T06:59:12;3.27;;;1.30;;
21258;SDS011;10787;53.364;-1.480;2023-02-18T07:01:38;4.87;;;1.30;;
21258;SDS011;10787;53.364;-1.480;2023-02-18T07:04:03;3.57;;;1.10;;
21258;SDS011;10787;53.364;-1.480;2023-02-18T07:06:29;3.77;;;1.37;;
21258;SDS011;10787;53.364;-1.480;2023-02-18T07:08:55;5.20;;;1.37;;
21258;SDS011;10787;53.364;-1.480;2023-02-18T07:11:21;3.80;;;1.00;;
21258;SDS011;10787;53.364;-1.480;2023-02-18T07:13:47;3.77;;;1.20;;
21258;SDS011;10787;53.364;-1.480;2023-02-18T07:16:12;4.70;;;1.03;;
21258;SDS011;10787;53.364;-1.480;2023-02-18T07:18:38;4.17;;;1.13;;
21258;SDS011;10787;53.364;-1.480;2023-02-18T07:21:04;5.17;;;1.10;;
21258;SDS011;10787;53.364;-1.480;2023-02-18T07:23:30;4.73;;;1.33;;
21258;SDS011;10787;53.364;-1.480;2023-02-18T07:26:05;9.60;;;1.40;;
21258;SDS011;10787;53.364;-1.480;2023-02-18T07:28:33;5.47;;;1.30;;
21258;SDS011;10787;53.364;-1.480;2023-02-18T07:30:58;5.13;;;1.13;;
21258;SDS011;10787;53.364;-1.480;2023-02-18T07:33:24;3.67;;;1.37;;
21258;SDS011;10787;53.364;-1.480;2023-02-18T07:35:52;6.03;;;1.20;;
21258;SDS011;10787;53.364;-1.480;2023-02-18T07:38:19;5.97;;;1.53;;
21258;SDS011;10787;53.364;-1.480;2023-02-18T07:40:45;4.47;;;1.23;;
21258;SDS011;10787;53.364;-1.480;2023-02-18T07:43:11;4.00;;;1.23;;
21258;SDS011;10787;53.364;-1.480;2023-02-18T07:45:37;7.40;;;1.27;;
21258;SDS011;10787;53.364;-1.480;2023-02-18T07:48:03;6.30;;;1.30;;
21258;SDS011;10787;53.364;-1.480;2023-02-18T07:50:29;3.97;;;1.03;;
21258;SDS011;10787;53.364;-1.480;2023-02-18T07:52:59;6.73;;;1.50;;
21258;SDS011;10787;53.364;-1.480;2023-02-18T07:55:26;5.47;;;1.17;;
21258;SDS011;10787;53.364;-1.480;2023-02-18T07:58:11;5.10;;;1.30;;
21258;SDS011;10787;53.364;-1.480;2023-02-18T08:00:37;3.23;;;1.20;;
21258;SDS011;10787;53.364;-1.480;2023-02-18T08:03:03;5.87;;;1.27;;
21258;SDS011;10787;53.364;-1.480;2023-02-18T08:05:29;6.80;;;1.47;;
21258;SDS011;10787;53.364;-1.480;2023-02-18T08:08:06;7.80;;;1.60;;
21258;SDS011;10787;53.364;-1.480;2023-02-18T08:10:34;6.30;;;1.50;;
21258;SDS011;10787;53.364;-1.480;2023-02-18T08:12:59;5.00;;;1.30;;
21258;SDS011;10787;53.364;-1.480;2023-02-18T08:15:25;6.23;;;1.20;;
21258;SDS011;10787;53.364;-1.480;2023-02-18T08:17:51;7.00;;;1.50;;
21258;SDS011;10787;53.364;-1.480;2023-02-18T08:20:17;4.53;;;1.30;;
21258;SDS011;10787;53.364;-1.480;2023-02-18T08:22:43;5.33;;;1.43;;
21258;SDS011;10787;53.364;-1.480;2023-02-18T08:25:09;5.30;;;1.40;;
21258;SDS011;10787;53.364;-1.480;2023-02-18T08:27:34;5.00;;;1.20;;
21258;SDS011;10787;53.364;-1.480;2023-02-18T08:30:00;6.17;;;1.50;;
21258;SDS011;10787;53.364;-1.480;2023-02-18T08:32:26;3.77;;;1.10;;
21258;SDS011;10787;53.364;-1.480;2023-02-18T08:34:53;4.90;;;1.30;;
21258;SDS011;10787;53.364;-1.480;2023-02-18T08:37:19;6.63;;;1.57;;
21258;SDS011;10787;53.364;-1.480;2023-02-18T08:39:44;10.10;;;1.70;;
21258;SDS011;10787;53.364;-1.480;2023-02-18T08:42:10;8.80;;;1.60;;
21258;SDS011;10787;53.364;-1.480;2023-02-18T08:44:36;6.40;;;1.60;;
21258;SDS011;10787;53.364;-1.480;2023-02-18T08:47:02;6.97;;;1.67;;
21258;SDS011;10787;53.364;-1.480;2023-02-18T08:49:27;5.80;;;1.50;;
21258;SDS011;10787;53.364;-1.480;2023-02-18T08:51:53;7.77;;;1.67;;
21258;SDS011;10787;53.364;-1.480;2023-02-18T08:54:19;6.77;;;1.50;;
21258;SDS011;10787;53.364;-1.480;2023-02-18T08:56:45;7.00;;;1.60;;
21258;SDS011;10787;53.364;-1.480;2023-02-18T08:59:11;7.30;;;1.50;;
21258;SDS011;10787;53.364;-1.480;2023-02-18T09:01:37;6.83;;;1.40;;
21258;SDS011;10787;53.364;-1.480;2023-02-18T09:04:02;5.93;;;1.60;;
21258;SDS011;10787;53.364;-1.480;2023-02-18T09:06:28;6.40;;;1.30;;
21258;SDS011;10787;53.364;-1.480;2023-02-18T09:08:54;7.23;;;1.70;;
21258;SDS011;10787;53.364;-1.480;2023-02-18T09:11:20;9.37;;;1.70;;
21258;SDS011;10787;53.364;-1.480;2023-02-18T09:13:46;5.43;;;1.27;;
21258;SDS011;10787;53.364;-1.480;2023-02-18T09:16:13;5.97;;;1.53;;
21258;SDS011;10787;53.364;-1.480;2023-02-18T09:18:42;7.13;;;1.50;;
21258;SDS011;10787;53.364;-1.480;2023-02-18T09:21:10;7.17;;;1.40;;
21258;SDS011;10787;53.364;-1.480;2023-02-18T09:23:37;9.10;;;1.30;;
21258;SDS011;10787;53.364;-1.480;2023-02-18T09:26:04;6.60;;;1.53;;
21258;SDS011;10787;53.364;-1.480;2023-02-18T09:28:32;4.87;;;1.50;;
21258;SDS011;10787;53.364;-1.480;2023-02-18T09:31:08;7.77;;;1.50;;
21258;SDS011;10787;53.364;-1.480;2023-02-18T09:33:40;5.37;;;1.17;;
21258;SDS011;10787;53.364;-1.480;2023-02-18T09:36:08;6.97;;;1.30;;
21258;SDS011;10787;53.364;-1.480;2023-02-18T09:38:34;5.80;;;1.30;;
21258;SDS011;10787;53.364;-1.480;2023-02-18T09:41:00;4.17;;;1.10;;
21258;SDS011;10787;53.364;-1.480;2023-02-18T09:49:03;5.30;;;1.20;;
21258;SDS011;10787;53.364;-1.480;2023-02-18T09:51:36;5.67;;;1.10;;
21258;SDS011;10787;53.364;-1.480;2023-02-18T09:54:02;5.20;;;1.30;;
21258;SDS011;10787;53.364;-1.480;2023-02-18T09:56:30;8.53;;;1.50;;
21258;SDS011;10787;53.364;-1.480;2023-02-18T09:58:58;4.40;;;1.17;;
21258;SDS011;10787;53.364;-1.480;2023-02-18T10:01:32;7.67;;;1.20;;
21258;SDS011;10787;53.364;-1.480;2023-02-18T10:04:06;5.57;;;1.50;;
21258;SDS011;10787;53.364;-1.480;2023-02-18T10:06:47;7.90;;;1.40;;
21258;SDS011;10787;53.364;-1.480;2023-02-18T10:11:45;4.60;;;1.10;;
21258;SDS011;10787;53.364;-1.480;2023-02-18T10:14:17;5.60;;;1.60;;
21258;SDS011;10787;53.364;-1.480;2023-02-18T10:16:44;5.07;;;1.77;;
21258;SDS011;10787;53.364;-1.480;2023-02-18T10:19:34;3.10;;;1.13;;
21258;SDS011;10787;53.364;-1.480;2023-02-18T10:21:59;4.33;;;1.10;;
21258;SDS011;10787;53.364;-1.480;2023-02-18T10:24:31;4.67;;;1.20;;
21258;SDS011;10787;53.364;-1.480;2023-02-18T10:27:04;4.57;;;1.07;;
21258;SDS011;10787;53.364;-1.480;2023-02-18T10:29:30;6.00;;;0.90;;
21258;SDS011;10787;53.364;-1.480;2023-02-18T10:32:09;5.27;;;0.90;;
21258;SDS011;10787;53.364;-1.480;2023-02-18T10:34:47;2.73;;;0.90;;
21258;SDS011;10787;53.364;-1.480;2023-02-18T10:48:41;6.05;;;1.38;;
21258;SDS011;10787;53.364;-1.480;2023-02-18T10:51:17;4.03;;;1.10;;
21258;SDS011;10787;53.364;-1.480;2023-02-18T10:54:03;6.18;;;1.38;;
21258;SDS011;10787;53.364;-1.480;2023-02-18T10:56:39;6.07;;;1.20;;
21258;SDS011;10787;53.364;-1.480;2023-02-18T10:59:20;3.05;;;0.70;;
21258;SDS011;10787;53.364;-1.480;2023-02-18T11:02:09;4.07;;;1.08;;
21258;SDS011;10787;53.364;-1.480;2023-02-18T11:04:41;4.18;;;1.00;;
21258;SDS011;10787;53.364;-1.480;2023-02-18T11:07:17;4.85;;;1.10;;
21258;SDS011;10787;53.364;-1.480;2023-02-18T11:09:52;5.20;;;1.00;;
21258;SDS011;10787;53.364;-1.480;2023-02-18T11:17:39;3.88;;;1.17;;
21258;SDS011;10787;53.364;-1.480;2023-02-18T11:20:53;2.25;;;0.73;;
21258;SDS011;10787;53.364;-1.480;2023-02-18T11:22:59;4.25;;;0.90;;
21258;SDS011;10787;53.364;-1.480;2023-02-18T11:25:40;3.97;;;0.90;;
21258;SDS011;10787;53.364;-1.480;2023-02-18T11:30:46;4.00;;;0.77;;
21258;SDS011;10787;53.364;-1.480;2023-02-18T11:33:18;1.90;;;0.60;;
21258;SDS011;10787;53.364;-1.480;2023-02-18T11:35:52;3.80;;;0.88;;
21258;SDS011;10787;53.364;-1.480;2023-02-18T11:38:33;3.45;;;0.95;;
21258;SDS011;10787;53.364;-1.480;2023-02-18T11:41:02;2.95;;;0.70;;
21258;SDS011;10787;53.364;-1.480;2023-02-18T11:43:33;2.90;;;0.70;;
21258;SDS011;10787;53.364;-1.480;2023-02-18T11:49:19;2.70;;;0.80;;
21258;SDS011;10787;53.364;-1.480;2023-02-18T11:51:47;2.95;;;0.63;;
21258;SDS011;10787;53.364;-1.480;2023-02-18T11:54:24;2.28;;;0.70;;
21258;SDS011;10787;53.364;-1.480;2023-02-18T11:57:12;3.97;;;1.30;;
21258;SDS011;10787;53.364;-1.480;2023-02-18T11:59:39;4.85;;;1.20;;
21258;SDS011;10787;53.364;-1.480;2023-02-18T12:15:43;3.80;;;0.90;;
21258;SDS011;10787;53.364;-1.480;2023-02-18T12:33:05;3.05;;;0.80;;
21258;SDS011;10787;53.364;-1.480;2023-02-18T12:35:54;2.08;;;0.60;;
21258;SDS011;10787;53.364;-1.480;2023-02-18T12:58:02;3.20;;;1.38;;
21258;SDS011;10787;53.364;-1.480;2023-02-18T13:05:56;3.70;;;0.90;;
21258;SDS011;10787;53.364;-1.480;2023-02-18T13:14:26;3.50;;;0.82;;
21258;SDS011;10787;53.364;-1.480;2023-02-18T13:16:56;2.92;;;0.80;;
21258;SDS011;10787;53.364;-1.480;2023-02-18T13:19:25;1.65;;;0.70;;
21258;SDS011;10787;53.364;-1.480;2023-02-18T13:21:57;3.58;;;0.70;;
21258;SDS011;10787;53.364;-1.480;2023-02-18T13:24:36;1.35;;;0.60;;
21258;SDS011;10787;53.364;-1.480;2023-02-18T13:29:36;2.13;;;0.73;;
21258;SDS011;10787;53.364;-1.480;2023-02-18T13:32:39;4.75;;;1.00;;
21258;SDS011;10787;53.364;-1.480;2023-02-18T13:35:44;3.40;;;1.13;;
21258;SDS011;10787;53.364;-1.480;2023-02-18T13:38:17;3.47;;;1.50;;
21258;SDS011;10787;53.364;-1.480;2023-02-18T13:41:15;3.67;;;1.10;;
21258;SDS011;10787;53.364;-1.480;2023-02-18T13:43:42;2.27;;;0.67;;
21258;SDS011;10787;53.364;-1.480;2023-02-18T13:46:15;4.90;;;0.97;;
21258;SDS011;10787;53.364;-1.480;2023-02-18T13:51:32;2.77;;;0.90;;
21258;SDS011;10787;53.364;-1.480;2023-02-18T13:56:34;5.00;;;1.33;;
21258;SDS011;10787;53.364;-1.480;2023-02-18T13:59:10;5.35;;;1.30;;
21258;SDS011;10787;53.364;-1.480;2023-02-18T14:01:54;3.63;;;1.10;;
21258;SDS011;10787;53.364;-1.480;2023-02-18T14:04:36;3.28;;;1.23;;
21258;SDS011;10787;53.364;-1.480;2023-02-18T14:09:53;4.00;;;1.03;;
21258;SDS011;10787;53.364;-1.480;2023-02-18T14:14:50;5.90;;;1.25;;
21258;SDS011;10787;53.364;-1.480;2023-02-18T14:27:35;5.15;;;0.88;;
21258;SDS011;10787;53.364;-1.480;2023-02-18T14:30:07;2.60;;;1.00;;
21258;SDS011;10787;53.364;-1.480;2023-02-18T14:32:42;2.78;;;0.88;;
21258;SDS011;10787;53.364;-1.480;2023-02-18T14:35:52;2.80;;;1.05;;
21258;SDS011;10787;53.364;-1.480;2023-02-18T14:38:55;4.10;;;1.08;;
21258;SDS011;10787;53.364;-1.480;2023-02-18T14:44:02;2.58;;;1.20;;
21258;SDS011;10787;53.364;-1.480;2023-02-18T14:49:43;2.35;;;1.08;;
21258;SDS011;10787;53.364;-1.480;2023-02-18T14:55:10;4.90;;;1.20;;
21258;SDS011;10787;53.364;-1.480;2023-02-18T14:58:14;4.20;;;1.20;;
21258;SDS011;10787;53.364;-1.480;2023-02-18T15:00:40;3.97;;;1.08;;
21258;SDS011;10787;53.364;-1.480;2023-02-18T15:03:15;4.07;;;1.00;;
21258;SDS011;10787;53.364;-1.480;2023-02-18T15:05:43;3.47;;;1.10;;
21258;SDS011;10787;53.364;-1.480;2023-02-18T15:08:17;6.78;;;1.60;;
21258;SDS011;10787;53.364;-1.480;2023-02-18T15:11:00;4.38;;;1.30;;
21258;SDS011;10787;53.364;-1.480;2023-02-18T15:13:30;5.43;;;1.02;;
21258;SDS011;10787;53.364;-1.480;2023-02-18T15:16:01;4.47;;;1.20;;
21258;SDS011;10787;53.364;-1.480;2023-02-18T15:21:01;2.88;;;1.23;;
21258;SDS011;10787;53.364;-1.480;2023-02-18T15:23:29;5.97;;;1.10;;
21258;SDS011;10787;53.364;-1.480;2023-02-18T15:25:56;3.30;;;0.90;;
21258;SDS011;10787;53.364;-1.480;2023-02-18T15:28:24;1.98;;;0.80;;
21258;SDS011;10787;53.364;-1.480;2023-02-18T15:31:01;5.32;;;0.98;;
21258;SDS011;10787;53.364;-1.480;2023-02-18T15:33:28;2.70;;;1.02;;
21258;SDS011;10787;53.364;-1.480;2023-02-18T15:36:01;3.40;;;1.30;;
21258;SDS011;10787;53.364;-1.480;2023-02-18T15:38:29;3.10;;;1.00;;
21258;SDS011;10787;53.364;-1.480;2023-02-18T15:40:56;2.65;;;0.90;;
21258;SDS011;10787;53.364;-1.480;2023-02-18T15:43:26;3.65;;;1.10;;
21258;SDS011;10787;53.364;-1.480;2023-02-18T15:45:53;3.63;;;1.13;;
21258;SDS011;10787;53.364;-1.480;2023-02-18T15:48:29;4.30;;;1.27;;
21258;SDS011;10787;53.364;-1.480;2023-02-18T15:50:57;4.05;;;1.10;;
21258;SDS011;10787;53.364;-1.480;2023-02-18T15:53:29;5.30;;;1.20;;
21258;SDS011;10787;53.364;-1.480;2023-02-18T15:56:04;5.10;;;1.50;;
21258;SDS011;10787;53.364;-1.480;2023-02-18T15:58:33;4.40;;;1.30;;
21258;SDS011;10787;53.364;-1.480;2023-02-18T16:06:28;4.40;;;1.33;;
21258;SDS011;10787;53.364;-1.480;2023-02-18T16:11:44;4.63;;;1.63;;
21258;SDS011;10787;53.364;-1.480;2023-02-18T16:14:23;6.23;;;2.00;;
21258;SDS011;10787;53.364;-1.480;2023-02-18T16:17:13;11.53;;;3.30;;
21258;SDS011;10787;53.364;-1.480;2023-02-18T16:25:06;12.33;;;5.73;;
21258;SDS011;10787;53.364;-1.480;2023-02-18T16:28:02;7.07;;;2.53;;
21258;SDS011;10787;53.364;-1.480;2023-02-18T16:30:46;6.77;;;2.53;;
21258;SDS011;10787;53.364;-1.480;2023-02-18T16:33:12;6.27;;;1.97;;
21258;SDS011;10787;53.364;-1.480;2023-02-18T16:35:38;3.87;;;1.30;;
21258;SDS011;10787;53.364;-1.480;2023-02-18T16:38:04;5.47;;;1.30;;
21258;SDS011;10787;53.364;-1.480;2023-02-18T16:40:34;3.10;;;0.90;;
21258;SDS011;10787;53.364;-1.480;2023-02-18T16:43:09;3.83;;;1.17;;
21258;SDS011;10787;53.364;-1.480;2023-02-18T16:45:41;4.43;;;1.60;;
21258;SDS011;10787;53.364;-1.480;2023-02-18T16:48:19;5.67;;;1.40;;
21258;SDS011;10787;53.364;-1.480;2023-02-18T16:50:45;5.10;;;1.77;;
21258;SDS011;10787;53.364;-1.480;2023-02-18T16:53:13;4.70;;;1.47;;
21258;SDS011;10787;53.364;-1.480;2023-02-18T16:55:39;4.47;;;1.50;;
21258;SDS011;10787;53.364;-1.480;2023-02-18T16:58:05;4.37;;;1.10;;
21258;SDS011;10787;53.364;-1.480;2023-02-18T17:00:31;4.03;;;1.07;;
21258;SDS011;10787;53.364;-1.480;2023-02-18T17:02:58;4.17;;;1.30;;
21258;SDS011;10787;53.364;-1.480;2023-02-18T17:05:26;6.10;;;1.50;;
21258;SDS011;10787;53.364;-1.480;2023-02-18T17:08:28;3.63;;;1.00;;
21258;SDS011;10787;53.364;-1.480;2023-02-18T17:10:50;2.93;;;1.10;;
21258;SDS011;10787;53.364;-1.480;2023-02-18T17:13:20;5.17;;;1.63;;
21258;SDS011;10787;53.364;-1.480;2023-02-18T17:15:52;6.43;;;2.40;;
21258;SDS011;10787;53.364;-1.480;2023-02-18T17:18:19;7.43;;;1.80;;
21258;SDS011;10787;53.364;-1.480;2023-02-18T17:20:46;5.70;;;1.90;;
21258;SDS011;10787;53.364;-1.480;2023-02-18T17:23:16;5.07;;;2.03;;
21258;SDS011;10787;53.364;-1.480;2023-02-18T17:25:45;7.50;;;1.50;;
21258;SDS011;10787;53.364;-1.480;2023-02-18T17:28:13;6.40;;;1.53;;
21258;SDS011;10787;53.364;-1.480;2023-02-18T17:30:43;4.70;;;1.53;;
21258;SDS011;10787;53.364;-1.480;2023-02-18T17:33:12;5.73;;;1.60;;
21258;SDS011;10787;53.364;-1.480;2023-02-18T17:35:41;4.70;;;1.50;;
21258;SDS011;10787;53.364;-1.480;2023-02-18T17:38:11;7.50;;;1.90;;
21258;SDS011;10787;53.364;-1.480;2023-02-18T17:40:38;5.63;;;1.80;;
21258;SDS011;10787;53.364;-1.480;2023-02-18T17:43:04;5.83;;;1.60;;
21258;SDS011;10787;53.364;-1.480;2023-02-18T17:45:32;8.83;;;2.00;;